Terminal Aerodrome Forecast
Issued by NWS

Home | Current Version | Previous Version | Text Only | Print | Product List | Glossary On
Versions: 1 2 3 4 5 6 7 8 9 10 11 12 13 14 15 16 17 18 19 20 21 22 23 24 25 26 27
000
FTUS45 KSLC 172343
TAFEVW
TAF
KEVW 172343Z 1800/1824 28014KT 6SM -SHSN BKN030 BKN080
     FM180100 28012KT P6SM VCSH SCT030 BKN080
     FM180500 26010KT P6SM SCT040 SCT080
     FM181100 23008KT P6SM SCT040
     FM181900 25011KT P6SM SCT120=

USA.gov is the U.S. government's official web portal to all federal, state and local government web resources and services.